sensor_id;sensor_type;location;lat;lon;timestamp;temperature;humidity
5508;DHT22;2776;51.046;6.772;2023-04-25T00:00:20;6.30;99.90
5508;DHT22;2776;51.046;6.772;2023-04-25T00:02:47;6.30;99.90
5508;DHT22;2776;51.046;6.772;2023-04-25T00:05:14;6.20;99.90
5508;DHT22;2776;51.046;6.772;2023-04-25T00:07:41;6.10;99.90
5508;DHT22;2776;51.046;6.772;2023-04-25T00:10:10;6.10;99.90
5508;DHT22;2776;51.046;6.772;2023-04-25T00:12:37;6.10;99.90
5508;DHT22;2776;51.046;6.772;2023-04-25T00:15:05;6.10;99.90
5508;DHT22;2776;51.046;6.772;2023-04-25T00:17:32;6.00;99.90
5508;DHT22;2776;51.046;6.772;2023-04-25T00:20:00;6.00;99.90
5508;DHT22;2776;51.046;6.772;2023-04-25T00:22:30;6.00;99.90
5508;DHT22;2776;51.046;6.772;2023-04-25T00:24:56;6.00;99.90
5508;DHT22;2776;51.046;6.772;2023-04-25T00:27:26;6.00;99.90
5508;DHT22;2776;51.046;6.772;2023-04-25T00:29:53;5.90;99.90
5508;DHT22;2776;51.046;6.772;2023-04-25T00:32:20;5.90;99.90
5508;DHT22;2776;51.046;6.772;2023-04-25T00:34:47;5.90;99.90
5508;DHT22;2776;51.046;6.772;2023-04-25T00:37:13;5.90;99.90
5508;DHT22;2776;51.046;6.772;2023-04-25T00:39:40;5.90;99.90
5508;DHT22;2776;51.046;6.772;2023-04-25T00:42:07;5.90;99.90
5508;DHT22;2776;51.046;6.772;2023-04-25T00:44:36;5.90;99.90
5508;DHT22;2776;51.046;6.772;2023-04-25T00:47:03;6.00;99.90
5508;DHT22;2776;51.046;6.772;2023-04-25T00:49:30;6.00;99.90
5508;DHT22;2776;51.046;6.772;2023-04-25T00:51:57;6.00;99.90
5508;DHT22;2776;51.046;6.772;2023-04-25T00:54:24;5.90;99.90
5508;DHT22;2776;51.046;6.772;2023-04-25T00:56:51;6.00;99.90
5508;DHT22;2776;51.046;6.772;2023-04-25T00:59:19;6.00;99.90
5508;DHT22;2776;51.046;6.772;2023-04-25T01:01:47;6.00;99.90
5508;DHT22;2776;51.046;6.772;2023-04-25T01:04:14;6.10;99.90
5508;DHT22;2776;51.046;6.772;2023-04-25T01:06:41;6.10;99.90
5508;DHT22;2776;51.046;6.772;2023-04-25T01:09:08;6.10;99.90
5508;DHT22;2776;51.046;6.772;2023-04-25T01:11:35;6.10;99.90
5508;DHT22;2776;51.046;6.772;2023-04-25T01:14:01;6.20;99.90
5508;DHT22;2776;51.046;6.772;2023-04-25T01:16:28;6.20;99.90
5508;DHT22;2776;51.046;6.772;2023-04-25T01:18:56;6.30;99.90
5508;DHT22;2776;51.046;6.772;2023-04-25T01:21:25;6.40;99.90
5508;DHT22;2776;51.046;6.772;2023-04-25T01:23:54;6.40;99.90
5508;DHT22;2776;51.046;6.772;2023-04-25T01:26:21;6.40;99.90
5508;DHT22;2776;51.046;6.772;2023-04-25T01:28:49;6.40;99.90
5508;DHT22;2776;51.046;6.772;2023-04-25T01:31:16;6.40;99.90
5508;DHT22;2776;51.046;6.772;2023-04-25T01:33:44;6.50;99.90
5508;DHT22;2776;51.046;6.772;2023-04-25T01:36:12;6.60;99.90
5508;DHT22;2776;51.046;6.772;2023-04-25T01:38:42;6.50;99.90
5508;DHT22;2776;51.046;6.772;2023-04-25T01:41:09;6.50;99.90
5508;DHT22;2776;51.046;6.772;2023-04-25T01:43:36;6.50;99.90
5508;DHT22;2776;51.046;6.772;2023-04-25T01:46:03;6.60;99.90
5508;DHT22;2776;51.046;6.772;2023-04-25T01:48:30;6.60;99.90
5508;DHT22;2776;51.046;6.772;2023-04-25T01:50:57;6.50;99.90
5508;DHT22;2776;51.046;6.772;2023-04-25T01:53:24;6.50;99.90
5508;DHT22;2776;51.046;6.772;2023-04-25T01:55:52;6.60;99.90
5508;DHT22;2776;51.046;6.772;2023-04-25T01:58:19;6.60;99.90
5508;DHT22;2776;51.046;6.772;2023-04-25T02:00:46;6.60;99.90
5508;DHT22;2776;51.046;6.772;2023-04-25T02:03:13;6.60;99.90
5508;DHT22;2776;51.046;6.772;2023-04-25T02:05:40;6.60;99.90
5508;DHT22;2776;51.046;6.772;2023-04-25T02:08:08;6.60;99.90
5508;DHT22;2776;51.046;6.772;2023-04-25T02:10:35;6.60;99.90
5508;DHT22;2776;51.046;6.772;2023-04-25T02:13:04;6.60;99.90
5508;DHT22;2776;51.046;6.772;2023-04-25T02:15:31;6.60;99.90
5508;DHT22;2776;51.046;6.772;2023-04-25T02:17:57;6.60;99.90
5508;DHT22;2776;51.046;6.772;2023-04-25T02:20:25;6.70;99.90
5508;DHT22;2776;51.046;6.772;2023-04-25T02:22:52;6.70;99.90
5508;DHT22;2776;51.046;6.772;2023-04-25T02:25:19;6.60;99.90
5508;DHT22;2776;51.046;6.772;2023-04-25T02:27:47;6.60;99.90
5508;DHT22;2776;51.046;6.772;2023-04-25T02:30:15;6.60;99.90
5508;DHT22;2776;51.046;6.772;2023-04-25T02:32:42;6.60;99.90
5508;DHT22;2776;51.046;6.772;2023-04-25T02:35:09;6.70;99.90
5508;DHT22;2776;51.046;6.772;2023-04-25T02:37:38;6.70;99.90
5508;DHT22;2776;51.046;6.772;2023-04-25T02:40:06;6.80;99.90
5508;DHT22;2776;51.046;6.772;2023-04-25T02:42:33;6.80;99.90
5508;DHT22;2776;51.046;6.772;2023-04-25T02:45:00;6.80;99.90
5508;DHT22;2776;51.046;6.772;2023-04-25T02:47:28;6.80;99.90
5508;DHT22;2776;51.046;6.772;2023-04-25T02:49:55;6.80;99.90
5508;DHT22;2776;51.046;6.772;2023-04-25T02:52:22;6.80;99.90
5508;DHT22;2776;51.046;6.772;2023-04-25T02:54:49;6.80;99.90
5508;DHT22;2776;51.046;6.772;2023-04-25T02:57:16;6.90;99.90
5508;DHT22;2776;51.046;6.772;2023-04-25T02:59:42;6.90;99.90
5508;DHT22;2776;51.046;6.772;2023-04-25T03:02:09;6.90;99.90
5508;DHT22;2776;51.046;6.772;2023-04-25T03:04:37;7.00;99.90
5508;DHT22;2776;51.046;6.772;2023-04-25T03:07:05;7.00;99.90
5508;DHT22;2776;51.046;6.772;2023-04-25T03:09:31;7.10;99.90
5508;DHT22;2776;51.046;6.772;2023-04-25T03:11:58;7.00;99.90
5508;DHT22;2776;51.046;6.772;2023-04-25T03:14:25;7.10;99.90
5508;DHT22;2776;51.046;6.772;2023-04-25T03:16:52;7.10;99.90
5508;DHT22;2776;51.046;6.772;2023-04-25T03:19:19;7.10;99.90
5508;DHT22;2776;51.046;6.772;2023-04-25T03:21:47;7.10;99.90
5508;DHT22;2776;51.046;6.772;2023-04-25T03:24:14;7.00;99.90
5508;DHT22;2776;51.046;6.772;2023-04-25T03:26:41;7.10;99.90
5508;DHT22;2776;51.046;6.772;2023-04-25T03:29:08;7.10;99.90
5508;DHT22;2776;51.046;6.772;2023-04-25T03:31:34;7.00;99.90
5508;DHT22;2776;51.046;6.772;2023-04-25T03:34:01;7.10;99.90
5508;DHT22;2776;51.046;6.772;2023-04-25T03:36:28;7.10;99.90
5508;DHT22;2776;51.046;6.772;2023-04-25T03:38:56;7.10;99.90
5508;DHT22;2776;51.046;6.772;2023-04-25T03:41:22;7.20;99.90
5508;DHT22;2776;51.046;6.772;2023-04-25T03:43:49;7.20;99.90
5508;DHT22;2776;51.046;6.772;2023-04-25T03:46:16;7.20;99.90
5508;DHT22;2776;51.046;6.772;2023-04-25T03:48:43;7.20;99.90
5508;DHT22;2776;51.046;6.772;2023-04-25T03:51:09;7.20;99.90
5508;DHT22;2776;51.046;6.772;2023-04-25T03:53:36;7.20;99.90
5508;DHT22;2776;51.046;6.772;2023-04-25T03:56:05;7.20;99.90
5508;DHT22;2776;51.046;6.772;2023-04-25T03:58:31;7.20;99.90
5508;DHT22;2776;51.046;6.772;2023-04-25T04:00:58;7.10;99.90
5508;DHT22;2776;51.046;6.772;2023-04-25T04:03:25;7.10;99.90
5508;DHT22;2776;51.046;6.772;2023-04-25T04:05:52;7.20;99.90
5508;DHT22;2776;51.046;6.772;2023-04-25T04:08:19;7.10;99.90
5508;DHT22;2776;51.046;6.772;2023-04-25T04:10:45;7.10;99.90
5508;DHT22;2776;51.046;6.772;2023-04-25T04:13:13;7.10;99.90
5508;DHT22;2776;51.046;6.772;2023-04-25T04:15:40;7.10;99.90
5508;DHT22;2776;51.046;6.772;2023-04-25T04:18:07;7.10;99.90
5508;DHT22;2776;51.046;6.772;2023-04-25T04:20:34;7.20;99.90
5508;DHT22;2776;51.046;6.772;2023-04-25T04:23:01;7.20;99.90
5508;DHT22;2776;51.046;6.772;2023-04-25T04:25:28;7.10;99.90
5508;DHT22;2776;51.046;6.772;2023-04-25T04:27:55;7.10;99.90
5508;DHT22;2776;51.046;6.772;2023-04-25T04:30:24;7.10;99.90
5508;DHT22;2776;51.046;6.772;2023-04-25T04:32:51;7.10;99.90
5508;DHT22;2776;51.046;6.772;2023-04-25T04:35:17;7.10;99.90
5508;DHT22;2776;51.046;6.772;2023-04-25T04:37:44;7.10;99.90
5508;DHT22;2776;51.046;6.772;2023-04-25T04:40:11;7.10;99.90
5508;DHT22;2776;51.046;6.772;2023-04-25T04:42:40;7.10;99.90
5508;DHT22;2776;51.046;6.772;2023-04-25T04:45:08;7.20;99.90
5508;DHT22;2776;51.046;6.772;2023-04-25T04:47:36;7.20;99.90
5508;DHT22;2776;51.046;6.772;2023-04-25T04:50:05;7.20;99.90
5508;DHT22;2776;51.046;6.772;2023-04-25T04:52:32;7.20;99.90
5508;DHT22;2776;51.046;6.772;2023-04-25T04:54:59;7.20;99.90
5508;DHT22;2776;51.046;6.772;2023-04-25T04:57:26;7.20;99.90
5508;DHT22;2776;51.046;6.772;2023-04-25T04:59:53;7.30;99.90
5508;DHT22;2776;51.046;6.772;2023-04-25T05:02:20;7.30;99.90
5508;DHT22;2776;51.046;6.772;2023-04-25T05:04:48;7.30;99.90
5508;DHT22;2776;51.046;6.772;2023-04-25T05:07:17;7.30;99.90
5508;DHT22;2776;51.046;6.772;2023-04-25T05:09:43;7.40;99.90
5508;DHT22;2776;51.046;6.772;2023-04-25T05:12:10;7.40;99.90
5508;DHT22;2776;51.046;6.772;2023-04-25T05:14:37;7.50;99.90
5508;DHT22;2776;51.046;6.772;2023-04-25T05:17:04;7.60;99.90
5508;DHT22;2776;51.046;6.772;2023-04-25T05:19:33;7.70;99.90
5508;DHT22;2776;51.046;6.772;2023-04-25T05:22:02;8.00;99.90
5508;DHT22;2776;51.046;6.772;2023-04-25T05:24:29;8.10;99.90
5508;DHT22;2776;51.046;6.772;2023-04-25T05:26:56;8.40;99.90
5508;DHT22;2776;51.046;6.772;2023-04-25T05:29:22;8.60;99.90
5508;DHT22;2776;51.046;6.772;2023-04-25T05:31:49;9.00;99.90
5508;DHT22;2776;51.046;6.772;2023-04-25T05:34:16;9.70;99.90
5508;DHT22;2776;51.046;6.772;2023-04-25T05:36:43;10.30;99.90
5508;DHT22;2776;51.046;6.772;2023-04-25T05:39:11;10.80;99.90
5508;DHT22;2776;51.046;6.772;2023-04-25T05:41:38;11.10;99.90
5508;DHT22;2776;51.046;6.772;2023-04-25T05:44:05;11.50;99.90
5508;DHT22;2776;51.046;6.772;2023-04-25T05:46:32;11.70;99.90
5508;DHT22;2776;51.046;6.772;2023-04-25T05:48:59;11.80;99.90
5508;DHT22;2776;51.046;6.772;2023-04-25T05:51:25;11.70;99.90
5508;DHT22;2776;51.046;6.772;2023-04-25T05:53:53;11.60;99.90
5508;DHT22;2776;51.046;6.772;2023-04-25T05:56:21;11.70;99.90
5508;DHT22;2776;51.046;6.772;2023-04-25T05:58:47;11.80;99.90
5508;DHT22;2776;51.046;6.772;2023-04-25T06:01:14;12.30;99.90
5508;DHT22;2776;51.046;6.772;2023-04-25T06:03:41;12.80;99.90
5508;DHT22;2776;51.046;6.772;2023-04-25T06:06:08;13.30;99.90
5508;DHT22;2776;51.046;6.772;2023-04-25T06:08:35;13.90;99.90
5508;DHT22;2776;51.046;6.772;2023-04-25T06:11:03;14.20;99.90
5508;DHT22;2776;51.046;6.772;2023-04-25T06:13:31;13.90;99.90
5508;DHT22;2776;51.046;6.772;2023-04-25T06:15:58;13.40;99.90
5508;DHT22;2776;51.046;6.772;2023-04-25T06:18:25;12.90;99.90
5508;DHT22;2776;51.046;6.772;2023-04-25T06:20:51;12.60;99.90
5508;DHT22;2776;51.046;6.772;2023-04-25T06:23:18;12.10;99.90
5508;DHT22;2776;51.046;6.772;2023-04-25T06:25:45;11.70;99.90
5508;DHT22;2776;51.046;6.772;2023-04-25T06:28:12;11.50;99.90
5508;DHT22;2776;51.046;6.772;2023-04-25T06:30:40;11.20;99.90
5508;DHT22;2776;51.046;6.772;2023-04-25T06:33:06;11.00;99.90
5508;DHT22;2776;51.046;6.772;2023-04-25T06:35:34;10.80;99.90
5508;DHT22;2776;51.046;6.772;2023-04-25T06:38:01;10.70;99.90
5508;DHT22;2776;51.046;6.772;2023-04-25T06:40:28;10.60;99.90
5508;DHT22;2776;51.046;6.772;2023-04-25T06:42:54;10.60;99.90
5508;DHT22;2776;51.046;6.772;2023-04-25T06:45:21;10.50;99.90
5508;DHT22;2776;51.046;6.772;2023-04-25T06:47:49;10.30;99.90
5508;DHT22;2776;51.046;6.772;2023-04-25T06:50:16;10.30;99.90
5508;DHT22;2776;51.046;6.772;2023-04-25T06:52:43;10.20;99.90
5508;DHT22;2776;51.046;6.772;2023-04-25T06:55:09;10.30;99.90
5508;DHT22;2776;51.046;6.772;2023-04-25T06:57:36;10.30;99.90
5508;DHT22;2776;51.046;6.772;2023-04-25T07:00:04;10.40;99.90
5508;DHT22;2776;51.046;6.772;2023-04-25T07:02:34;10.40;99.90
5508;DHT22;2776;51.046;6.772;2023-04-25T07:05:02;10.40;99.90
5508;DHT22;2776;51.046;6.772;2023-04-25T07:10:10;10.30;99.90
5508;DHT22;2776;51.046;6.772;2023-04-25T07:12:55;10.50;99.90
5508;DHT22;2776;51.046;6.772;2023-04-25T07:18:30;10.80;99.90
5508;DHT22;2776;51.046;6.772;2023-04-25T07:20:58;11.00;99.90
5508;DHT22;2776;51.046;6.772;2023-04-25T07:23:25;11.00;99.90
5508;DHT22;2776;51.046;6.772;2023-04-25T07:25:51;10.80;99.90
5508;DHT22;2776;51.046;6.772;2023-04-25T07:28:18;10.80;99.90
5508;DHT22;2776;51.046;6.772;2023-04-25T07:30:45;10.70;99.90
5508;DHT22;2776;51.046;6.772;2023-04-25T07:33:12;10.80;99.90
5508;DHT22;2776;51.046;6.772;2023-04-25T07:35:39;10.70;99.90
5508;DHT22;2776;51.046;6.772;2023-04-25T07:38:07;10.80;99.90
5508;DHT22;2776;51.046;6.772;2023-04-25T07:40:35;10.90;99.90
5508;DHT22;2776;51.046;6.772;2023-04-25T07:43:02;10.90;99.90
5508;DHT22;2776;51.046;6.772;2023-04-25T07:45:29;10.90;99.90
5508;DHT22;2776;51.046;6.772;2023-04-25T07:47:55;10.90;99.90
5508;DHT22;2776;51.046;6.772;2023-04-25T07:50:22;11.00;99.90
5508;DHT22;2776;51.046;6.772;2023-04-25T07:52:49;11.20;99.90
5508;DHT22;2776;51.046;6.772;2023-04-25T07:55:17;11.40;99.90
5508;DHT22;2776;51.046;6.772;2023-04-25T07:57:44;11.50;99.90
5508;DHT22;2776;51.046;6.772;2023-04-25T08:00:11;11.70;99.90
5508;DHT22;2776;51.046;6.772;2023-04-25T08:02:38;11.70;99.90
5508;DHT22;2776;51.046;6.772;2023-04-25T08:05:05;11.70;99.90
5508;DHT22;2776;51.046;6.772;2023-04-25T08:07:33;12.00;99.90
5508;DHT22;2776;51.046;6.772;2023-04-25T08:10:00;12.50;99.90
5508;DHT22;2776;51.046;6.772;2023-04-25T08:12:28;13.10;99.90
5508;DHT22;2776;51.046;6.772;2023-04-25T08:14:55;13.40;99.00
5508;DHT22;2776;51.046;6.772;2023-04-25T08:17:21;13.60;96.30
5508;DHT22;2776;51.046;6.772;2023-04-25T08:19:49;13.60;97.30
5508;DHT22;2776;51.046;6.772;2023-04-25T08:22:15;13.80;97.90
5508;DHT22;2776;51.046;6.772;2023-04-25T08:24:42;13.80;96.80
5508;DHT22;2776;51.046;6.772;2023-04-25T08:27:09;13.60;95.20
5508;DHT22;2776;51.046;6.772;2023-04-25T08:29:38;13.20;96.20
5508;DHT22;2776;51.046;6.772;2023-04-25T08:32:04;13.00;95.10
5508;DHT22;2776;51.046;6.772;2023-04-25T08:34:31;12.80;97.20
5508;DHT22;2776;51.046;6.772;2023-04-25T08:36:58;12.60;97.00
5508;DHT22;2776;51.046;6.772;2023-04-25T08:39:25;12.30;95.80
5508;DHT22;2776;51.046;6.772;2023-04-25T08:41:52;12.10;96.30
5508;DHT22;2776;51.046;6.772;2023-04-25T08:44:19;12.30;96.70
5508;DHT22;2776;51.046;6.772;2023-04-25T08:46:49;12.30;96.20
5508;DHT22;2776;51.046;6.772;2023-04-25T08:49:17;12.50;93.00
5508;DHT22;2776;51.046;6.772;2023-04-25T08:51:44;12.50;93.80
5508;DHT22;2776;51.046;6.772;2023-04-25T08:54:13;12.60;94.50
5508;DHT22;2776;51.046;6.772;2023-04-25T08:56:43;12.90;97.40
5508;DHT22;2776;51.046;6.772;2023-04-25T08:59:10;12.70;96.30
5508;DHT22;2776;51.046;6.772;2023-04-25T09:01:37;12.70;94.60
5508;DHT22;2776;51.046;6.772;2023-04-25T09:04:05;12.70;95.80
5508;DHT22;2776;51.046;6.772;2023-04-25T09:06:32;12.80;96.30
5508;DHT22;2776;51.046;6.772;2023-04-25T09:09:02;13.20;94.40
5508;DHT22;2776;51.046;6.772;2023-04-25T09:11:31;13.20;87.40
5508;DHT22;2776;51.046;6.772;2023-04-25T09:14:11;13.30;86.70
5508;DHT22;2776;51.046;6.772;2023-04-25T09:16:57;13.90;88.00
5508;DHT22;2776;51.046;6.772;2023-04-25T09:19:27;13.70;81.00
5508;DHT22;2776;51.046;6.772;2023-04-25T09:21:55;13.50;82.50
5508;DHT22;2776;51.046;6.772;2023-04-25T09:24:30;13.10;81.10
5508;DHT22;2776;51.046;6.772;2023-04-25T09:26:57;12.70;88.00
5508;DHT22;2776;51.046;6.772;2023-04-25T09:29:29;12.70;91.70
5508;DHT22;2776;51.046;6.772;2023-04-25T09:32:19;13.20;86.70
5508;DHT22;2776;51.046;6.772;2023-04-25T09:34:49;13.40;79.00
5508;DHT22;2776;51.046;6.772;2023-04-25T09:37:20;13.20;76.10
5508;DHT22;2776;51.046;6.772;2023-04-25T09:39:47;13.00;81.20
5508;DHT22;2776;51.046;6.772;2023-04-25T09:42:14;12.60;82.20
5508;DHT22;2776;51.046;6.772;2023-04-25T09:44:46;12.20;89.40
5508;DHT22;2776;51.046;6.772;2023-04-25T09:47:14;12.00;90.10
5508;DHT22;2776;51.046;6.772;2023-04-25T09:49:41;11.80;85.20
5508;DHT22;2776;51.046;6.772;2023-04-25T09:52:14;11.50;87.80
5508;DHT22;2776;51.046;6.772;2023-04-25T09:54:41;11.60;87.10
5508;DHT22;2776;51.046;6.772;2023-04-25T09:57:11;11.60;87.60
5508;DHT22;2776;51.046;6.772;2023-04-25T09:59:40;11.80;85.70
5508;DHT22;2776;51.046;6.772;2023-04-25T10:02:09;11.80;85.00
5508;DHT22;2776;51.046;6.772;2023-04-25T10:04:37;11.70;83.70
5508;DHT22;2776;51.046;6.772;2023-04-25T10:07:06;11.70;83.20
5508;DHT22;2776;51.046;6.772;2023-04-25T10:09:37;11.90;82.70
5508;DHT22;2776;51.046;6.772;2023-04-25T10:12:05;12.10;82.00
5508;DHT22;2776;51.046;6.772;2023-04-25T10:14:32;12.30;82.00
5508;DHT22;2776;51.046;6.772;2023-04-25T10:17:00;12.50;73.40
5508;DHT22;2776;51.046;6.772;2023-04-25T10:19:27;12.40;73.20
5508;DHT22;2776;51.046;6.772;2023-04-25T10:22:02;12.20;73.20
5508;DHT22;2776;51.046;6.772;2023-04-25T10:24:29;12.00;79.40
5508;DHT22;2776;51.046;6.772;2023-04-25T10:26:58;11.90;82.10
5508;DHT22;2776;51.046;6.772;2023-04-25T10:29:25;11.70;82.60
5508;DHT22;2776;51.046;6.772;2023-04-25T10:31:53;11.60;82.20
5508;DHT22;2776;51.046;6.772;2023-04-25T10:34:24;11.30;80.60
5508;DHT22;2776;51.046;6.772;2023-04-25T10:36:52;11.10;83.70
5508;DHT22;2776;51.046;6.772;2023-04-25T10:39:23;11.10;87.70
5508;DHT22;2776;51.046;6.772;2023-04-25T10:41:55;11.10;85.00
5508;DHT22;2776;51.046;6.772;2023-04-25T10:44:26;11.20;83.70
5508;DHT22;2776;51.046;6.772;2023-04-25T10:46:55;11.40;82.70
5508;DHT22;2776;51.046;6.772;2023-04-25T10:49:32;11.50;81.90
5508;DHT22;2776;51.046;6.772;2023-04-25T10:52:17;11.80;83.60
5508;DHT22;2776;51.046;6.772;2023-04-25T10:54:47;12.10;82.80
5508;DHT22;2776;51.046;6.772;2023-04-25T10:57:27;12.30;81.70
5508;DHT22;2776;51.046;6.772;2023-04-25T10:59:58;12.40;84.70
5508;DHT22;2776;51.046;6.772;2023-04-25T11:02:26;12.60;81.50
5508;DHT22;2776;51.046;6.772;2023-04-25T11:04:53;12.80;88.60
5508;DHT22;2776;51.046;6.772;2023-04-25T11:07:26;12.90;88.60
5508;DHT22;2776;51.046;6.772;2023-04-25T11:09:55;13.00;86.60
5508;DHT22;2776;51.046;6.772;2023-04-25T11:12:24;13.10;80.80
5508;DHT22;2776;51.046;6.772;2023-04-25T11:14:59;13.20;76.10
5508;DHT22;2776;51.046;6.772;2023-04-25T11:17:28;13.30;69.60
5508;DHT22;2776;51.046;6.772;2023-04-25T11:19:54;13.30;65.00
5508;DHT22;2776;51.046;6.772;2023-04-25T11:22:22;13.20;67.40
5508;DHT22;2776;51.046;6.772;2023-04-25T11:24:49;13.30;70.80
5508;DHT22;2776;51.046;6.772;2023-04-25T11:27:16;13.40;61.20
5508;DHT22;2776;51.046;6.772;2023-04-25T11:29:42;13.30;60.20
5508;DHT22;2776;51.046;6.772;2023-04-25T11:32:10;13.10;58.50
5508;DHT22;2776;51.046;6.772;2023-04-25T11:34:37;13.00;59.30
5508;DHT22;2776;51.046;6.772;2023-04-25T11:37:04;12.90;63.50
5508;DHT22;2776;51.046;6.772;2023-04-25T11:39:31;13.10;57.90
5508;DHT22;2776;51.046;6.772;2023-04-25T11:41:58;13.00;56.40
5508;DHT22;2776;51.046;6.772;2023-04-25T11:44:26;12.80;55.70
5508;DHT22;2776;51.046;6.772;2023-04-25T11:46:53;12.80;54.10
5508;DHT22;2776;51.046;6.772;2023-04-25T11:49:21;12.80;54.40
5508;DHT22;2776;51.046;6.772;2023-04-25T11:51:50;12.80;54.10
5508;DHT22;2776;51.046;6.772;2023-04-25T11:54:16;12.90;55.00
5508;DHT22;2776;51.046;6.772;2023-04-25T11:56:44;12.90;54.50
5508;DHT22;2776;51.046;6.772;2023-04-25T11:59:12;12.90;59.90
5508;DHT22;2776;51.046;6.772;2023-04-25T12:01:40;13.00;55.50
5508;DHT22;2776;51.046;6.772;2023-04-25T12:04:11;13.20;62.60
5508;DHT22;2776;51.046;6.772;2023-04-25T12:06:41;13.40;57.00
5508;DHT22;2776;51.046;6.772;2023-04-25T12:09:09;13.50;54.20
5508;DHT22;2776;51.046;6.772;2023-04-25T12:11:47;13.60;56.60
5508;DHT22;2776;51.046;6.772;2023-04-25T12:14:21;13.40;53.40
5508;DHT22;2776;51.046;6.772;2023-04-25T12:16:49;13.30;54.10
5508;DHT22;2776;51.046;6.772;2023-04-25T12:19:17;13.00;56.10
5508;DHT22;2776;51.046;6.772;2023-04-25T12:21:46;12.80;56.80
5508;DHT22;2776;51.046;6.772;2023-04-25T12:24:14;12.60;56.80
5508;DHT22;2776;51.046;6.772;2023-04-25T12:26:48;12.50;58.40
5508;DHT22;2776;51.046;6.772;2023-04-25T12:29:17;12.10;60.90
5508;DHT22;2776;51.046;6.772;2023-04-25T12:31:43;11.90;62.50
5508;DHT22;2776;51.046;6.772;2023-04-25T12:34:10;11.80;64.10
5508;DHT22;2776;51.046;6.772;2023-04-25T12:36:37;11.70;68.20
5508;DHT22;2776;51.046;6.772;2023-04-25T12:39:06;11.50;74.10
5508;DHT22;2776;51.046;6.772;2023-04-25T12:41:33;11.80;78.30
5508;DHT22;2776;51.046;6.772;2023-04-25T12:44:00;12.10;81.60
5508;DHT22;2776;51.046;6.772;2023-04-25T12:46:27;12.20;73.40
5508;DHT22;2776;51.046;6.772;2023-04-25T12:48:53;12.40;73.20
5508;DHT22;2776;51.046;6.772;2023-04-25T12:51:21;12.60;70.50
5508;DHT22;2776;51.046;6.772;2023-04-25T12:53:50;12.80;64.00
5508;DHT22;2776;51.046;6.772;2023-04-25T12:56:19;13.00;63.30
5508;DHT22;2776;51.046;6.772;2023-04-25T12:58:46;13.20;58.30
5508;DHT22;2776;51.046;6.772;2023-04-25T13:01:13;13.20;58.30
5508;DHT22;2776;51.046;6.772;2023-04-25T13:03:40;13.40;56.70
5508;DHT22;2776;51.046;6.772;2023-04-25T13:06:07;13.60;53.60
5508;DHT22;2776;51.046;6.772;2023-04-25T13:08:34;13.70;53.90
5508;DHT22;2776;51.046;6.772;2023-04-25T13:11:02;13.60;55.50
5508;DHT22;2776;51.046;6.772;2023-04-25T13:13:30;13.70;54.30
5508;DHT22;2776;51.046;6.772;2023-04-25T13:15:57;13.60;54.30
5508;DHT22;2776;51.046;6.772;2023-04-25T13:18:24;13.50;54.60
5508;DHT22;2776;51.046;6.772;2023-04-25T13:20:51;13.40;49.20
5508;DHT22;2776;51.046;6.772;2023-04-25T13:23:18;12.90;45.80
5508;DHT22;2776;51.046;6.772;2023-04-25T13:25:45;12.70;48.40
5508;DHT22;2776;51.046;6.772;2023-04-25T13:28:12;12.70;47.30
5508;DHT22;2776;51.046;6.772;2023-04-25T13:30:40;12.70;49.00
5508;DHT22;2776;51.046;6.772;2023-04-25T13:33:07;12.70;47.80
5508;DHT22;2776;51.046;6.772;2023-04-25T13:35:35;12.70;48.60
5508;DHT22;2776;51.046;6.772;2023-04-25T13:38:02;12.70;49.20
5508;DHT22;2776;51.046;6.772;2023-04-25T13:40:29;12.80;52.50
5508;DHT22;2776;51.046;6.772;2023-04-25T13:42:56;12.90;53.80
5508;DHT22;2776;51.046;6.772;2023-04-25T13:45:22;12.90;52.20
5508;DHT22;2776;51.046;6.772;2023-04-25T13:47:50;13.00;53.40
5508;DHT22;2776;51.046;6.772;2023-04-25T13:50:17;13.30;56.80
5508;DHT22;2776;51.046;6.772;2023-04-25T13:52:44;13.40;55.60
5508;DHT22;2776;51.046;6.772;2023-04-25T13:55:11;13.40;49.60
5508;DHT22;2776;51.046;6.772;2023-04-25T13:57:38;13.30;50.20
5508;DHT22;2776;51.046;6.772;2023-04-25T14:00:05;13.30;48.90
5508;DHT22;2776;51.046;6.772;2023-04-25T14:02:34;13.30;46.90
5508;DHT22;2776;51.046;6.772;2023-04-25T14:05:02;13.30;44.80
5508;DHT22;2776;51.046;6.772;2023-04-25T14:07:29;13.30;45.00
5508;DHT22;2776;51.046;6.772;2023-04-25T14:09:56;13.30;48.30
5508;DHT22;2776;51.046;6.772;2023-04-25T14:12:23;13.30;48.30
5508;DHT22;2776;51.046;6.772;2023-04-25T14:14:50;13.20;50.90
5508;DHT22;2776;51.046;6.772;2023-04-25T14:17:18;13.00;50.90
5508;DHT22;2776;51.046;6.772;2023-04-25T14:19:45;12.80;51.90
5508;DHT22;2776;51.046;6.772;2023-04-25T14:22:14;12.70;54.20
5508;DHT22;2776;51.046;6.772;2023-04-25T14:24:41;12.50;54.80
5508;DHT22;2776;51.046;6.772;2023-04-25T14:27:08;12.40;55.90
5508;DHT22;2776;51.046;6.772;2023-04-25T14:29:35;12.40;57.30
5508;DHT22;2776;51.046;6.772;2023-04-25T14:32:02;12.30;56.20
5508;DHT22;2776;51.046;6.772;2023-04-25T14:34:30;12.30;60.60
5508;DHT22;2776;51.046;6.772;2023-04-25T14:36:57;12.00;56.70
5508;DHT22;2776;51.046;6.772;2023-04-25T14:39:25;11.80;57.50
5508;DHT22;2776;51.046;6.772;2023-04-25T14:41:52;11.70;57.90
5508;DHT22;2776;51.046;6.772;2023-04-25T14:44:19;11.60;58.80
5508;DHT22;2776;51.046;6.772;2023-04-25T14:46:45;11.70;66.30
5508;DHT22;2776;51.046;6.772;2023-04-25T14:49:12;11.80;61.80
5508;DHT22;2776;51.046;6.772;2023-04-25T14:51:40;12.00;64.20
5508;DHT22;2776;51.046;6.772;2023-04-25T14:54:06;12.10;60.90
5508;DHT22;2776;51.046;6.772;2023-04-25T14:56:34;12.30;59.40
5508;DHT22;2776;51.046;6.772;2023-04-25T14:59:01;12.40;55.80
5508;DHT22;2776;51.046;6.772;2023-04-25T15:01:28;12.40;55.30
5508;DHT22;2776;51.046;6.772;2023-04-25T15:03:55;12.40;58.50
5508;DHT22;2776;51.046;6.772;2023-04-25T15:06:22;12.40;59.00
5508;DHT22;2776;51.046;6.772;2023-04-25T15:08:51;12.50;56.70
5508;DHT22;2776;51.046;6.772;2023-04-25T15:11:18;12.40;58.10
5508;DHT22;2776;51.046;6.772;2023-04-25T15:13:48;12.50;58.00
5508;DHT22;2776;51.046;6.772;2023-04-25T15:16:15;12.50;58.50
5508;DHT22;2776;51.046;6.772;2023-04-25T15:18:42;12.50;59.10
5508;DHT22;2776;51.046;6.772;2023-04-25T15:21:08;12.30;60.80
5508;DHT22;2776;51.046;6.772;2023-04-25T15:23:35;12.30;63.70
5508;DHT22;2776;51.046;6.772;2023-04-25T15:26:02;12.20;65.00
5508;DHT22;2776;51.046;6.772;2023-04-25T15:28:28;12.20;67.20
5508;DHT22;2776;51.046;6.772;2023-04-25T15:30:58;12.30;66.60
5508;DHT22;2776;51.046;6.772;2023-04-25T15:33:25;12.30;64.60
5508;DHT22;2776;51.046;6.772;2023-04-25T15:35:51;12.40;67.10
5508;DHT22;2776;51.046;6.772;2023-04-25T15:38:18;12.40;66.00
5508;DHT22;2776;51.046;6.772;2023-04-25T15:40:45;12.40;59.80
5508;DHT22;2776;51.046;6.772;2023-04-25T15:43:12;12.30;58.90
5508;DHT22;2776;51.046;6.772;2023-04-25T15:45:40;12.30;57.40
5508;DHT22;2776;51.046;6.772;2023-04-25T15:48:08;12.20;58.60
5508;DHT22;2776;51.046;6.772;2023-04-25T15:50:35;12.30;57.80
5508;DHT22;2776;51.046;6.772;2023-04-25T15:53:02;12.40;59.40
5508;DHT22;2776;51.046;6.772;2023-04-25T15:55:28;12.60;58.00
5508;DHT22;2776;51.046;6.772;2023-04-25T15:57:55;12.60;57.60
5508;DHT22;2776;51.046;6.772;2023-04-25T16:00:22;12.60;56.30
5508;DHT22;2776;51.046;6.772;2023-04-25T16:02:49;12.60;54.70
5508;DHT22;2776;51.046;6.772;2023-04-25T16:05:17;12.50;56.40
5508;DHT22;2776;51.046;6.772;2023-04-25T16:07:45;12.30;56.70
5508;DHT22;2776;51.046;6.772;2023-04-25T16:10:13;12.10;57.90
5508;DHT22;2776;51.046;6.772;2023-04-25T16:12:41;11.90;60.40
5508;DHT22;2776;51.046;6.772;2023-04-25T16:15:08;11.90;65.20